Time;durP1;ratioP1;P1;durP2;ratioP2;P2;SDS_P1;SDS_P2;PMS_P1;PMS_P2;Temp;Humidity;BMP_temperature;BMP_pressure;BME280_temperature;BME280_humidity;BME280_pressure;Samples;Min_cycle;Max_cycle;Signal;HPM_P1;HPM_P2
2022/11/24 00:01:15;;;;;;;25.95;5.03;;;;;;;6.86;100.00;100234.59;5034953;28;20124;-57
2022/11/24 00:03:42;;;;;;;20.15;4.38;;;;;;;6.83;100.00;100237.47;5035723;28;20387;-57
2022/11/24 00:06:14;;;;;;;22.10;4.70;;;;;;;6.80;100.00;100242.97;5034105;28;20061;-57
2022/11/24 00:08:41;;;;;;;15.70;3.70;;;;;;;6.81;100.00;100232.31;5029251;28;20034;-58
2022/11/24 00:11:13;;;;;;;19.63;3.90;;;;;;;6.82;100.00;100235.78;5039763;28;20033;-57
2022/11/24 00:13:39;;;;;;;23.70;4.80;;;;;;;6.81;100.00;100237.59;5034127;28;20029;-56
2022/11/24 00:16:19;;;;;;;22.75;4.50;;;;;;;6.81;100.00;100244.66;5034281;28;20014;-54
2022/11/24 00:18:47;;;;;;;20.15;4.65;;;;;;;6.79;100.00;100247.38;5032929;28;20045;-55
2022/11/24 00:21:15;;;;;;;20.70;4.50;;;;;;;6.80;100.00;100267.56;5034756;28;20049;-55
2022/11/24 00:23:41;;;;;;;20.48;4.47;;;;;;;6.78;100.00;100258.91;5033794;28;20108;-55
2022/11/24 00:26:07;;;;;;;17.23;4.10;;;;;;;6.78;100.00;100258.91;5033060;28;20136;-54
2022/11/24 00:28:34;;;;;;;25.50;4.78;;;;;;;6.78;100.00;100256.28;5034467;28;20065;-56
2022/11/24 00:31:00;;;;;;;19.75;4.60;;;;;;;6.79;100.00;100270.31;5044991;28;20033;-57
2022/11/24 00:33:25;;;;;;;20.08;4.40;;;;;;;6.79;100.00;100268.50;5033489;28;20038;-57
2022/11/24 00:35:58;;;;;;;25.35;4.03;;;;;;;6.78;100.00;100256.28;5033850;28;20079;-58
2022/11/24 00:38:24;;;;;;;20.08;4.05;;;;;;;6.77;100.00;100266.94;5033844;28;20037;-57
2022/11/24 00:40:50;;;;;;;22.67;3.97;;;;;;;6.75;100.00;100264.41;5034221;28;20029;-54
2022/11/24 00:43:16;;;;;;;21.10;4.05;;;;;;;6.75;100.00;100269.69;5033748;28;20025;-57
2022/11/24 00:45:41;;;;;;;14.25;3.55;;;;;;;6.74;100.00;100262.72;5033243;28;20025;-52
2022/11/24 00:48:07;;;;;;;16.70;3.95;;;;;;;6.75;100.00;100266.22;5033684;28;20064;-51
2022/11/24 00:50:33;;;;;;;19.95;4.03;;;;;;;6.74;100.00;100267.16;5027920;28;20471;-51
2022/11/24 00:52:58;;;;;;;18.70;3.88;;;;;;;6.74;100.00;100273.25;5030499;28;20108;-53
2022/11/24 00:55:23;;;;;;;15.95;3.67;;;;;;;6.72;100.00;100269.91;5033589;28;20044;-52
2022/11/24 00:57:49;;;;;;;16.95;3.83;;;;;;;6.75;100.00;100271.50;5033146;28;20029;-55
2022/11/24 01:00:15;;;;;;;18.65;4.60;;;;;;;6.75;100.00;100272.31;5035721;28;20048;-55
2022/11/24 01:02:40;;;;;;;17.33;3.45;;;;;;;6.74;100.00;100277.72;5036290;28;20025;-54
2022/11/24 01:05:06;;;;;;;18.98;4.20;;;;;;;6.73;100.00;100282.16;5038433;28;20033;-53
2022/11/24 01:07:31;;;;;;;18.08;3.92;;;;;;;6.72;100.00;100290.19;5034440;28;20052;-54
2022/11/24 01:09:57;;;;;;;21.02;3.83;;;;;;;6.71;100.00;100294.63;5033896;28;20057;-53
2022/11/24 01:12:22;;;;;;;23.70;3.97;;;;;;;6.71;100.00;100293.75;5033352;28;20655;-55
2022/11/24 01:14:47;;;;;;;13.95;3.63;;;;;;;6.68;100.00;100289.56;5032986;28;20087;-54
2022/11/24 01:17:13;;;;;;;20.98;4.60;;;;;;;6.67;100.00;100293.13;5032783;28;20364;-55
2022/11/24 01:19:38;;;;;;;19.27;3.42;;;;;;;6.66;100.00;100297.56;5032893;28;20108;-52
2022/11/24 01:22:03;;;;;;;19.88;4.03;;;;;;;6.65;100.00;100300.31;5029783;28;20053;-54
2022/11/24 01:24:29;;;;;;;20.23;3.90;;;;;;;6.63;100.00;100304.84;5033287;28;20025;-52
2022/11/24 01:26:54;;;;;;;19.33;3.70;;;;;;;6.61;100.00;100296.19;5032342;28;20072;-55
2022/11/24 01:29:19;;;;;;;16.27;3.70;;;;;;;6.59;100.00;100295.44;5041922;28;20022;-52
2022/11/24 01:31:45;;;;;;;19.15;4.75;;;;;;;6.58;100.00;100299.88;5032678;28;20033;-55
2022/11/24 01:34:11;;;;;;;19.83;3.97;;;;;;;6.56;100.00;100303.56;5033134;28;20410;-52
2022/11/24 01:36:37;;;;;;;16.45;3.95;;;;;;;6.54;100.00;100308.94;5033078;28;20518;-54
2022/11/24 01:39:02;;;;;;;23.00;4.45;;;;;;;6.53;100.00;100307.28;5032193;28;20121;-55
2022/11/24 01:41:27;;;;;;;20.02;3.80;;;;;;;6.52;100.00;100312.66;5032353;28;20495;-55
2022/11/24 01:43:54;;;;;;;22.65;4.18;;;;;;;6.51;100.00;100316.22;5032951;28;20052;-54
2022/11/24 01:46:25;;;;;;;15.23;3.42;;;;;;;6.50;100.00;100314.56;5032922;28;20112;-55
2022/11/24 01:48:55;;;;;;;19.27;3.67;;;;;;;6.47;100.00;100316.44;5032273;28;20387;-54
2022/11/24 01:51:25;;;;;;;17.65;4.05;;;;;;;6.48;100.00;100319.94;5035983;28;20035;-55
2022/11/24 01:54:01;;;;;;;21.30;4.47;;;;;;;6.51;100.00;100326.78;5032677;28;20038;-55
2022/11/24 01:56:27;;;;;;;19.75;4.30;;;;;;;6.50;100.00;100330.38;5030192;28;20043;-55
2022/11/24 01:58:56;;;;;;;22.98;4.20;;;;;;;6.47;100.00;100329.63;5036860;28;20475;-52
2022/11/24 02:01:22;;;;;;;14.38;3.80;;;;;;;6.48;100.00;100327.84;5031756;28;20079;-54
2022/11/24 02:03:48;;;;;;;17.75;3.72;;;;;;;6.46;100.00;100332.38;5032696;28;20475;-53
2022/11/24 02:06:20;;;;;;;23.10;3.72;;;;;;;6.47;100.00;100337.53;5031765;28;20025;-55
2022/11/24 02:08:55;;;;;;;17.50;4.18;;;;;;;6.44;100.00;100332.47;5032618;28;20036;-55
2022/11/24 02:11:23;;;;;;;27.17;4.90;;;;;;;6.46;100.00;100340.28;5030255;28;20398;-54
2022/11/24 02:13:50;;;;;;;28.02;5.03;;;;;;;6.44;100.00;100343.03;5032308;28;20025;-53
2022/11/24 02:16:16;;;;;;;20.73;4.07;;;;;;;6.42;100.00;100344.91;5031508;28;20022;-54
2022/11/24 02:18:42;;;;;;;17.35;4.07;;;;;;;6.42;100.00;100349.38;5032406;28;20429;-52
2022/11/24 02:21:10;;;;;;;17.00;4.20;;;;;;;6.39;100.00;100355.69;5028678;28;20087;-54
2022/11/24 02:23:46;;;;;;;23.25;4.25;;;;;;;6.40;100.00;100353.91;5026760;28;20032;-54
2022/11/24 02:26:17;;;;;;;21.42;4.07;;;;;;;6.39;100.00;100352.19;5031973;28;20053;-55
2022/11/24 02:28:43;;;;;;;19.88;4.75;;;;;;;6.38;100.00;100347.88;5031711;28;20030;-53
2022/11/24 02:31:09;;;;;;;22.92;4.18;;;;;;;6.37;100.00;100349.66;5031169;28;20487;-53
2022/11/24 02:33:35;;;;;;;17.10;4.10;;;;;;;6.37;100.00;100362.84;5031545;28;20027;-54
2022/11/24 02:36:01;;;;;;;16.85;4.32;;;;;;;6.37;100.00;100357.56;5031826;28;20056;-54
2022/11/24 02:38:31;;;;;;;21.10;3.85;;;;;;;6.38;100.00;100364.56;5031810;28;20030;-55
2022/11/24 02:40:59;;;;;;;19.98;4.18;;;;;;;6.40;100.00;100364.47;5036517;28;20183;-54
2022/11/24 02:43:29;;;;;;;24.90;4.60;;;;;;;6.41;100.00;100364.34;5030945;28;20017;-54
2022/11/24 02:45:54;;;;;;;21.90;4.13;;;;;;;6.42;100.00;100358.13;5031674;28;20036;-55
2022/11/24 02:48:20;;;;;;;22.02;4.07;;;;;;;6.45;100.00;100371.09;5031919;28;20017;-54
2022/11/24 02:50:45;;;;;;;23.90;4.70;;;;;;;6.47;100.00;100374.47;5031281;28;20103;-55
2022/11/24 02:53:10;;;;;;;22.45;4.70;;;;;;;6.49;100.00;100369.09;5031558;28;20122;-54
2022/11/24 02:55:36;;;;;;;19.88;4.57;;;;;;;6.53;100.00;100373.22;5031880;28;20120;-54
2022/11/24 02:58:01;;;;;;;24.50;5.13;;;;;;;6.58;100.00;100368.50;5034549;28;20029;-55
2022/11/24 03:00:27;;;;;;;25.67;5.13;;;;;;;6.60;100.00;100386.88;5026635;28;20100;-53
2022/11/24 03:02:52;;;;;;;25.00;4.93;;;;;;;6.62;100.00;100387.59;5031578;28;20179;-54
2022/11/24 03:05:17;;;;;;;29.00;5.20;;;;;;;6.63;100.00;100379.56;5031285;28;20064;-54
2022/11/24 03:07:43;;;;;;;21.23;5.00;;;;;;;6.65;100.00;100387.41;5031584;28;20022;-55
2022/11/24 03:10:09;;;;;;;23.80;4.53;;;;;;;6.65;100.00;100379.47;5027325;28;20030;-53
2022/11/24 03:12:34;;;;;;;18.25;4.00;;;;;;;6.67;100.00;100385.50;5031683;28;20026;-56
2022/11/24 03:14:59;;;;;;;24.92;4.88;;;;;;;6.67;100.00;100380.22;5031177;28;20038;-54
2022/11/24 03:17:25;;;;;;;21.17;4.38;;;;;;;6.69;100.00;100383.59;5031858;28;20033;-53
2022/11/24 03:19:50;;;;;;;25.52;4.32;;;;;;;6.71;100.00;100389.63;5031009;28;20394;-55
2022/11/24 03:22:15;;;;;;;21.13;4.25;;;;;;;6.73;100.00;100390.38;5040657;28;20068;-55
2022/11/24 03:24:41;;;;;;;20.88;4.28;;;;;;;6.74;100.00;100392.03;5031920;28;20432;-56
2022/11/24 03:27:06;;;;;;;18.67;4.22;;;;;;;6.76;100.00;100397.22;5031161;28;20563;-54
2022/11/24 03:29:32;;;;;;;23.30;4.78;;;;;;;6.80;100.00;100393.44;5043681;28;20028;-55
2022/11/24 03:31:58;;;;;;;23.50;4.68;;;;;;;6.83;100.00;100398.50;5032181;28;20036;-53
2022/11/24 03:34:23;;;;;;;32.72;5.07;;;;;;;6.83;100.00;100401.16;5032002;28;20034;-56
2022/11/24 03:36:49;;;;;;;29.30;5.47;;;;;;;6.87;100.00;100404.41;5030905;28;20503;-55
2022/11/24 03:39:15;;;;;;;25.27;4.75;;;;;;;6.90;100.00;100398.94;5031975;28;20029;-57
2022/11/24 03:41:40;;;;;;;28.48;5.57;;;;;;;6.94;100.00;100397.75;5031460;28;20452;-55
2022/11/24 03:44:05;;;;;;;29.50;5.20;;;;;;;6.96;100.00;100399.34;5035496;28;20056;-58
2022/11/24 03:46:31;;;;;;;21.58;5.20;;;;;;;6.98;100.00;100400.09;5034729;28;20029;-55
2022/11/24 03:48:56;;;;;;;25.83;4.47;;;;;;;6.99;100.00;100401.75;5035926;28;20035;-57
2022/11/24 03:51:21;;;;;;;26.60;5.15;;;;;;;7.00;100.00;100402.63;5034387;28;20056;-57
2022/11/24 03:53:47;;;;;;;24.23;5.15;;;;;;;7.01;100.00;100396.38;5032827;28;20040;-57
2022/11/24 03:56:13;;;;;;;25.35;4.85;;;;;;;7.02;100.00;100403.34;5034158;28;20025;-58
2022/11/24 03:58:38;;;;;;;22.48;4.47;;;;;;;7.04;100.00;100397.03;5034273;28;20068;-57
2022/11/24 04:01:03;;;;;;;22.83;4.78;;;;;;;7.06;100.00;100396.94;5034412;28;20436;-58
2022/11/24 04:03:29;;;;;;;27.02;5.20;;;;;;;7.07;100.00;100395.97;5035108;28;20037;-57
2022/11/24 04:05:54;;;;;;;25.20;4.75;;;;;;;7.09;100.00;100403.78;5035141;28;20152;-55
2022/11/24 04:08:19;;;;;;;25.67;5.00;;;;;;;7.09;100.00;100401.13;5034273;28;20021;-56
2022/11/24 04:10:49;;;;;;;32.08;5.75;;;;;;;7.11;100.00;100412.44;5035001;28;20057;-56
2022/11/24 04:13:16;;;;;;;33.65;5.70;;;;;;;7.12;100.00;100417.59;5034501;28;20029;-58
2022/11/24 04:15:42;;;;;;;26.67;5.57;;;;;;;7.12;100.00;100422.91;5035314;28;20079;-54
2022/11/24 04:18:09;;;;;;;29.42;5.05;;;;;;;7.14;100.00;100436.81;5033967;28;20029;-57
2022/11/24 04:20:35;;;;;;;22.58;4.65;;;;;;;7.15;100.00;100445.63;5034647;28;20055;-56
2022/11/24 04:23:01;;;;;;;27.75;4.80;;;;;;;7.14;100.00;100443.91;5040876;28;20053;-57
2022/11/24 04:25:26;;;;;;;23.63;5.32;;;;;;;7.15;100.00;100451.75;5033929;28;20057;-57
2022/11/24 04:27:53;;;;;;;22.15;4.60;;;;;;;7.14;100.00;100457.97;5034344;28;20026;-56
2022/11/24 04:30:19;;;;;;;21.63;4.43;;;;;;;7.13;100.00;100458.09;5024279;28;20052;-56
2022/11/24 04:32:44;;;;;;;23.90;4.80;;;;;;;7.12;100.00;100464.31;5039625;28;20040;-57
2022/11/24 04:35:10;;;;;;;14.50;3.53;;;;;;;7.10;100.00;100474.97;5037708;28;20029;-56
2022/11/24 04:37:35;;;;;;;18.77;4.25;;;;;;;7.09;100.00;100464.53;5034451;28;20022;-56
2022/11/24 04:40:00;;;;;;;22.13;4.05;;;;;;;7.06;100.00;100459.44;5033704;28;20382;-56
2022/11/24 04:42:26;;;;;;;19.90;3.65;;;;;;;7.03;100.00;100464.00;5031745;28;20112;-58
2022/11/24 04:44:51;;;;;;;20.77;3.78;;;;;;;7.01;100.00;100468.53;5030602;28;20471;-57
2022/11/24 04:47:21;;;;;;;18.48;3.40;;;;;;;6.98;100.00;100467.91;5033286;28;20033;-56
2022/11/24 04:49:48;;;;;;;14.80;3.30;;;;;;;6.97;100.00;100471.47;5031611;28;20037;-57
2022/11/24 04:52:13;;;;;;;12.27;2.78;;;;;;;6.94;100.00;100469.88;5034286;28;20033;-56
2022/11/24 04:54:38;;;;;;;15.25;2.97;;;;;;;6.92;100.00;100474.41;5030914;28;20033;-56
2022/11/24 04:57:04;;;;;;;13.43;3.53;;;;;;;6.90;100.00;100473.69;5024383;28;20022;-55
2022/11/24 04:59:29;;;;;;;13.45;2.78;;;;;;;6.88;100.00;100472.94;5033122;28;20078;-56
2022/11/24 05:01:54;;;;;;;10.70;2.80;;;;;;;6.88;100.00;100474.72;5033837;28;20038;-55
2022/11/24 05:04:20;;;;;;;9.07;2.70;;;;;;;6.85;100.00;100468.72;5032977;28;20038;-54
2022/11/24 05:06:46;;;;;;;10.68;2.25;;;;;;;6.83;100.00;100478.53;5034776;28;20034;-58
2022/11/24 05:09:16;;;;;;;9.20;2.45;;;;;;;6.81;100.00;100475.16;5037794;28;20445;-56
2022/11/24 05:11:41;;;;;;;10.45;2.15;;;;;;;6.80;100.00;100473.44;5032638;28;20032;-53
2022/11/24 05:14:07;;;;;;;10.00;2.05;;;;;;;6.79;100.00;100469.09;5033120;28;20380;-56
2022/11/24 05:16:32;;;;;;;7.20;2.30;;;;;;;6.80;100.00;100485.81;5033590;28;20021;-58
2022/11/24 05:18:57;;;;;;;12.00;2.30;;;;;;;6.78;100.00;100485.06;5033235;28;20025;-56
2022/11/24 05:21:23;;;;;;;8.48;2.15;;;;;;;6.78;100.00;100491.19;5033576;28;20083;-53
2022/11/24 05:23:48;;;;;;;8.55;1.90;;;;;;;6.77;100.00;100492.13;5032716;28;20121;-57
2022/11/24 05:26:13;;;;;;;9.38;2.33;;;;;;;6.78;100.00;100490.34;5034854;28;20096;-54
2022/11/24 05:28:38;;;;;;;11.77;2.72;;;;;;;6.76;100.00;100500.16;5033362;28;20031;-56
2022/11/24 05:31:04;;;;;;;11.35;2.50;;;;;;;6.76;100.00;100501.00;5036844;28;20080;-56
2022/11/24 05:33:32;;;;;;;10.70;2.80;;;;;;;6.78;100.00;100504.41;5032699;28;20033;-56
2022/11/24 05:36:02;;;;;;;13.85;3.10;;;;;;;6.77;100.00;100500.03;5033682;28;20083;-55
2022/11/24 05:38:29;;;;;;;14.02;3.05;;;;;;;6.78;100.00;100508.84;5023288;28;20594;-53
2022/11/24 05:40:58;;;;;;;16.23;3.20;;;;;;;6.79;100.00;100510.50;5033312;28;20039;-57
2022/11/24 05:43:24;;;;;;;17.13;3.95;;;;;;;6.80;100.00;100512.22;5032837;28;20033;-54
2022/11/24 05:45:49;;;;;;;14.90;3.30;;;;;;;6.81;100.00;100513.88;5039072;28;20028;-53
2022/11/24 05:48:15;;;;;;;20.38;3.88;;;;;;;6.81;100.00;100519.16;5036626;28;20036;-56
2022/11/24 05:50:41;;;;;;;18.08;3.67;;;;;;;6.83;100.00;100528.69;5033550;28;20065;-53
2022/11/24 05:53:08;;;;;;;19.08;3.72;;;;;;;6.83;100.00;100536.59;5031259;28;20479;-56
2022/11/24 05:55:35;;;;;;;17.45;4.10;;;;;;;6.87;100.00;100536.41;5033237;28;20084;-56
2022/11/24 05:58:02;;;;;;;16.58;3.67;;;;;;;6.85;100.00;100532.06;5032251;28;20024;-57
2022/11/24 06:00:29;;;;;;;12.80;3.67;;;;;;;6.88;100.00;100546.00;5032381;28;20021;-56
2022/11/24 06:02:56;;;;;;;18.55;4.18;;;;;;;6.90;100.00;100550.25;5032509;28;20017;-57
2022/11/24 06:05:21;;;;;;;20.38;4.10;;;;;;;6.91;100.00;100549.31;5032618;28;20033;-56
2022/11/24 06:07:46;;;;;;;17.25;3.72;;;;;;;6.93;100.00;100563.25;5033671;28;20052;-55
2022/11/24 06:10:12;;;;;;;17.83;3.72;;;;;;;6.95;100.00;100571.06;5032581;28;20032;-54
2022/11/24 06:12:37;;;;;;;17.42;4.07;;;;;;;6.95;100.00;100566.63;5032361;28;20504;-55
2022/11/24 06:15:03;;;;;;;18.17;3.35;;;;;;;6.96;100.00;100573.63;5032535;28;20128;-57
2022/11/24 06:17:28;;;;;;;15.07;3.55;;;;;;;6.97;100.00;100574.44;5032142;28;20053;-56
2022/11/24 06:19:54;;;;;;;12.32;3.13;;;;;;;6.97;100.00;100577.09;5033856;28;20116;-58
2022/11/24 06:22:19;;;;;;;10.90;2.85;;;;;;;6.97;100.00;100587.66;5033768;28;20029;-57
2022/11/24 06:24:45;;;;;;;9.55;2.80;;;;;;;6.97;100.00;100590.28;5034104;28;20383;-52
2022/11/24 06:27:11;;;;;;;11.00;2.65;;;;;;;6.96;100.00;100594.75;5030247;28;20052;-55
2022/11/24 06:29:36;;;;;;;9.18;2.60;;;;;;;6.96;100.00;100599.16;5032162;28;20042;-55
2022/11/24 06:32:02;;;;;;;13.75;2.85;;;;;;;6.96;100.00;100604.44;5032511;28;20486;-58
2022/11/24 06:34:27;;;;;;;11.77;2.40;;;;;;;6.96;100.00;100601.78;5026743;28;20029;-55
2022/11/24 06:36:52;;;;;;;10.15;2.80;;;;;;;6.95;100.00;100610.69;5031926;28;20057;-57
2022/11/24 06:39:17;;;;;;;6.72;1.90;;;;;;;6.96;100.00;100620.28;5031793;28;20025;-58
2022/11/24 06:41:43;;;;;;;9.43;2.25;;;;;;;6.95;100.00;100627.34;5031579;28;20025;-57
2022/11/24 06:44:08;;;;;;;10.20;2.60;;;;;;;6.95;100.00;100634.44;5031615;28;20033;-57
2022/11/24 06:46:33;;;;;;;11.68;2.60;;;;;;;6.94;100.00;100638.03;5032045;28;20032;-55
2022/11/24 06:48:59;;;;;;;8.35;2.58;;;;;;;6.93;100.00;100639.81;5031355;28;20084;-54
2022/11/24 06:51:25;;;;;;;8.15;2.35;;;;;;;6.91;100.00;100644.34;5032103;28;20407;-53
2022/11/24 06:53:51;;;;;;;8.65;2.20;;;;;;;6.90;100.00;100653.22;5029119;28;20030;-58
2022/11/24 06:56:18;;;;;;;6.72;2.25;;;;;;;6.88;100.00;100654.25;5031607;28;20120;-57
2022/11/24 06:58:46;;;;;;;8.57;2.10;;;;;;;6.83;100.00;100651.94;5031489;28;20391;-57
2022/11/24 07:01:24;;;;;;;5.72;1.70;;;;;;;6.82;100.00;100661.63;5018311;28;20025;-56
2022/11/24 07:03:51;;;;;;;10.77;2.28;;;;;;;6.79;100.00;100666.25;5031991;28;20049;-57
2022/11/24 07:06:17;;;;;;;13.15;2.83;;;;;;;6.77;100.00;100676.06;5033959;28;20104;-52
2022/11/24 07:08:44;;;;;;;10.55;2.03;;;;;;;6.75;100.00;100691.16;5031477;28;20028;-53
2022/11/24 07:11:15;;;;;;;13.57;2.47;;;;;;;6.73;100.00;100690.38;5030978;28;20091;-53
2022/11/24 07:13:41;;;;;;;8.82;2.30;;;;;;;6.73;100.00;100703.59;5031411;28;20109;-54
2022/11/24 07:16:16;;;;;;;10.18;2.20;;;;;;;6.71;100.00;100702.84;5031938;28;20087;-52
2022/11/24 07:18:45;;;;;;;11.02;2.47;;;;;;;6.69;100.00;100712.66;5021793;28;20053;-52
2022/11/24 07:21:11;;;;;;;9.50;2.95;;;;;;;6.69;100.00;100718.75;5034772;28;20487;-53
2022/11/24 07:23:37;;;;;;;10.93;2.60;;;;;;;6.68;100.00;100717.09;5031385;28;20041;-52
2022/11/24 07:26:06;;;;;;;10.38;2.50;;;;;;;6.67;100.00;100725.94;5031224;28;20041;-54
2022/11/24 07:28:32;;;;;;;10.82;2.22;;;;;;;6.66;100.00;100726.88;5027856;28;20055;-52
2022/11/24 07:30:57;;;;;;;11.43;1.98;;;;;;;6.66;100.00;100726.88;5033390;28;20085;-54
2022/11/24 07:33:26;;;;;;;9.48;2.17;;;;;;;6.63;100.00;100733.19;5035094;28;20025;-54
2022/11/24 07:35:52;;;;;;;6.60;1.98;;;;;;;6.62;100.00;100747.34;5033917;28;20371;-50
2022/11/24 07:38:17;;;;;;;8.50;2.20;;;;;;;6.61;100.00;100739.50;5031499;28;20063;-51
2022/11/24 07:40:43;;;;;;;9.68;2.35;;;;;;;6.58;100.00;100737.09;5033487;28;20037;-51
2022/11/24 07:43:08;;;;;;;8.30;2.25;;;;;;;6.56;100.00;100744.22;5033700;28;20475;-55
2022/11/24 07:45:33;;;;;;;6.57;2.35;;;;;;;6.54;100.00;100754.03;5031802;28;20041;-55
2022/11/24 07:47:59;;;;;;;8.45;2.15;;;;;;;6.53;100.00;100757.59;5033668;28;20321;-53
2022/11/24 07:50:24;;;;;;;12.00;2.30;;;;;;;6.51;100.00;100754.22;5032843;28;20099;-52
2022/11/24 07:52:49;;;;;;;7.22;2.05;;;;;;;6.48;100.00;100758.75;5028059;28;20108;-55
2022/11/24 07:55:15;;;;;;;10.85;2.13;;;;;;;6.48;100.00;100763.19;5034694;28;20057;-54
2022/11/24 07:57:40;;;;;;;11.25;2.45;;;;;;;6.47;100.00;100764.94;5032442;28;21434;-54
2022/11/24 08:00:06;;;;;;;8.05;2.35;;;;;;;6.44;100.00;100773.03;5034842;28;20037;-55
2022/11/24 08:02:32;;;;;;;8.82;2.17;;;;;;;6.44;100.00;100778.31;5034250;28;20060;-53
2022/11/24 08:04:58;;;;;;;10.90;2.45;;;;;;;6.43;100.00;100787.19;5033936;28;20289;-54
2022/11/24 08:07:23;;;;;;;15.32;2.42;;;;;;;6.43;100.00;100783.72;5034344;28;20022;-54
2022/11/24 08:09:49;;;;;;;13.10;2.83;;;;;;;6.42;100.00;100793.41;5033766;28;20038;-54
2022/11/24 08:12:16;;;;;;;10.80;2.35;;;;;;;6.41;100.00;100801.41;5034768;28;20053;-55
2022/11/24 08:14:41;;;;;;;8.55;2.30;;;;;;;6.43;100.00;100797.75;5033390;28;20056;-53
2022/11/24 08:17:07;;;;;;;10.45;2.42;;;;;;;6.44;100.00;100795.94;5029762;28;20033;-51
2022/11/24 08:19:33;;;;;;;14.52;2.60;;;;;;;6.44;100.00;100806.50;5032862;28;20083;-52
2022/11/24 08:21:59;;;;;;;14.02;2.42;;;;;;;6.44;100.00;100819.69;5033737;28;20036;-54
2022/11/24 08:24:25;;;;;;;6.65;1.83;;;;;;;6.44;100.00;100815.25;5033490;28;20033;-52
2022/11/24 08:26:50;;;;;;;14.20;2.85;;;;;;;6.47;100.00;100824.78;5034373;28;20093;-53
2022/11/24 08:29:16;;;;;;;8.48;2.38;;;;;;;6.47;100.00;100822.16;5030193;28;20033;-54
2022/11/24 08:31:41;;;;;;;10.45;2.60;;;;;;;6.50;100.00;100821.13;5034102;28;20025;-52
2022/11/24 08:34:06;;;;;;;13.30;2.53;;;;;;;6.52;100.00;100825.38;5030906;28;20029;-55
2022/11/24 08:36:32;;;;;;;8.15;2.42;;;;;;;6.52;100.00;100822.72;5033544;28;20021;-54
2022/11/24 08:38:58;;;;;;;10.02;2.72;;;;;;;6.56;100.00;100840.09;5034117;28;20112;-52
2022/11/24 08:41:25;;;;;;;12.38;2.85;;;;;;;6.58;100.00;100842.63;5038869;28;20044;-51
2022/11/24 08:43:50;;;;;;;9.85;2.60;;;;;;;6.62;100.00;100854.69;5040776;28;20021;-53
2022/11/24 08:46:17;;;;;;;12.60;2.83;;;;;;;6.63;100.00;100851.97;5031624;28;20110;-56
2022/11/24 08:48:46;;;;;;;12.43;2.88;;;;;;;6.68;100.00;100859.63;5031954;28;20045;-54
2022/11/24 08:51:15;;;;;;;8.23;2.50;;;;;;;6.71;100.00;100861.19;5029860;28;20021;-54
2022/11/24 08:53:41;;;;;;;13.52;3.33;;;;;;;6.75;100.00;100865.38;5031113;28;20044;-53
2022/11/24 08:56:07;;;;;;;12.27;3.00;;;;;;;6.79;100.00;100873.00;5030699;28;20022;-51
2022/11/24 08:58:33;;;;;;;8.25;2.67;;;;;;;6.84;100.00;100876.22;5031653;28;20547;-55
2022/11/24 09:01:14;;;;;;;14.00;3.15;;;;;;;6.89;100.00;100880.38;5030953;28;20026;-54
2022/11/24 09:03:40;;;;;;;11.07;3.03;;;;;;;6.94;100.00;100878.28;5030948;28;20542;-54
2022/11/24 09:06:07;;;;;;;13.32;2.88;;;;;;;6.98;100.00;100883.31;5033939;28;20103;-51
2022/11/24 09:08:33;;;;;;;11.25;3.40;;;;;;;7.04;100.00;100890.00;5035275;28;20558;-52
2022/11/24 09:11:00;;;;;;;17.23;3.60;;;;;;;7.09;100.00;100887.91;5032227;28;20036;-52
2022/11/24 09:13:26;;;;;;;15.32;3.38;;;;;;;7.16;100.00;100888.38;5032540;28;20036;-52
2022/11/24 09:15:51;;;;;;;15.10;3.13;;;;;;;7.23;100.00;100897.66;5032716;28;20029;-52
2022/11/24 09:18:16;;;;;;;12.55;2.90;;;;;;;7.31;100.00;100894.50;5031985;28;20045;-54
2022/11/24 09:20:42;;;;;;;12.40;3.08;;;;;;;7.36;100.00;100895.06;5032468;28;20045;-54
2022/11/24 09:23:07;;;;;;;15.77;3.22;;;;;;;7.43;100.00;100901.69;5028969;28;20502;-54
2022/11/24 09:25:32;;;;;;;12.32;2.97;;;;;;;7.52;100.00;100905.53;5031500;28;20084;-51
2022/11/24 09:27:58;;;;;;;14.63;3.28;;;;;;;7.58;100.00;100913.94;5027200;28;20476;-53
2022/11/24 09:30:24;;;;;;;19.63;3.88;;;;;;;7.66;100.00;100912.59;5029520;28;20030;-54
2022/11/24 09:32:49;;;;;;;14.02;3.28;;;;;;;7.73;100.00;100922.69;5032931;28;20316;-53
2022/11/24 09:35:14;;;;;;;11.45;3.10;;;;;;;7.83;100.00;100914.16;5031567;28;20062;-53
2022/11/24 09:37:42;;;;;;;12.95;3.22;;;;;;;7.91;100.00;100927.75;5032792;28;20082;-51
2022/11/24 09:40:11;;;;;;;13.70;3.50;;;;;;;7.99;99.89;100916.69;5030979;28;20390;-53
2022/11/24 09:42:47;;;;;;;18.33;3.88;;;;;;;8.07;99.84;100920.53;5028134;28;20071;-52
2022/11/24 09:45:23;;;;;;;22.02;4.05;;;;;;;8.12;98.99;100923.72;5032540;28;20025;-54
2022/11/24 09:48:02;;;;;;;17.33;3.72;;;;;;;8.24;99.13;100929.16;5032668;28;20033;-53
2022/11/24 09:50:35;;;;;;;16.13;3.92;;;;;;;8.31;98.93;100943.69;5027675;28;20116;-54
2022/11/24 09:53:28;;;;;;;17.83;3.78;;;;;;;8.40;98.87;100942.25;5036911;28;20063;-51
2022/11/24 09:56:01;;;;;;;16.88;3.85;;;;;;;8.49;97.43;100942.53;5031565;28;20029;-51
2022/11/24 09:58:41;;;;;;;14.63;3.80;;;;;;;8.57;97.23;100947.28;5027026;28;20033;-54
2022/11/24 10:01:20;;;;;;;;;;;;;;;8.63;99.05;100954.84;5024053;28;20053;-54
2022/11/24 10:03:52;;;;;;;18.77;4.18;;;;;;;8.72;97.18;100953.38;5011992;28;19909;-55
2022/11/24 10:06:26;;;;;;;12.95;3.05;;;;;;;8.80;96.44;100958.16;5013917;28;20036;-52
2022/11/24 10:09:28;;;;;;;11.45;4.07;;;;;;;8.86;96.35;100961.25;5011579;28;20021;-53
2022/11/24 10:12:16;;;;;;;15.75;3.70;;;;;;;8.94;96.14;100968.66;5012272;28;20337;-52
2022/11/24 10:15:03;;;;;;;18.70;4.03;;;;;;;8.98;93.94;100962.22;5023502;28;20065;-52
2022/11/24 10:17:55;;;;;;;13.40;3.47;;;;;;;9.05;95.05;100975.88;5016142;28;20056;-54
2022/11/24 10:20:31;;;;;;;19.65;4.63;;;;;;;9.09;94.06;100977.34;5011802;28;20087;-52
2022/11/24 10:23:32;;;;;;;20.45;6.93;;;;;;;9.13;93.96;100978.84;5015859;28;20087;-52
2022/11/24 10:25:59;;;;;;;18.55;5.32;;;;;;;9.19;93.46;100983.75;5005336;28;20042;-53
2022/11/24 10:28:41;;;;;;;12.98;4.07;;;;;;;9.26;93.56;100986.81;5013025;28;20120;-54
2022/11/24 10:31:23;;;;;;;17.95;4.75;;;;;;;9.33;93.98;100987.25;5017662;28;20068;-55
2022/11/24 10:33:49;;;;;;;18.63;3.72;;;;;;;9.40;92.71;100989.34;5013163;28;20030;-54
2022/11/24 10:36:29;;;;;;;10.30;3.63;;;;;;;9.49;93.26;101000.28;5016167;28;20106;-54
2022/11/24 10:39:05;;;;;;;15.77;3.40;;;;;;;9.55;92.07;100995.38;5019189;28;20029;-54
2022/11/24 10:41:42;;;;;;;15.55;3.75;;;;;;;9.60;91.10;100992.41;5011397;28;20029;-51
2022/11/24 10:44:14;;;;;;;14.70;3.08;;;;;;;9.65;90.74;100992.09;5013045;28;20037;-51
2022/11/24 10:46:40;;;;;;;19.38;3.65;;;;;;;9.69;89.53;100989.13;5016071;28;20030;-52
2022/11/24 10:49:05;;;;;;;18.02;3.67;;;;;;;9.74;89.69;100991.44;5030112;28;20032;-50
2022/11/24 10:51:48;;;;;;;19.35;4.05;;;;;;;9.79;89.76;100984.88;5028011;28;20049;-53
2022/11/24 10:54:22;;;;;;;12.70;3.50;;;;;;;9.87;90.51;100992.25;5024789;28;20037;-54
2022/11/24 10:56:50;;;;;;;14.80;3.42;;;;;;;9.93;89.68;100996.31;5019871;28;20030;-50
2022/11/24 10:59:20;;;;;;;15.27;3.47;;;;;;;10.02;89.19;100995.63;5030009;28;20025;-52
2022/11/24 11:01:46;;;;;;;17.13;3.10;;;;;;;10.08;89.12;100992.53;5030094;28;20391;-53
2022/11/24 11:04:18;;;;;;;19.77;3.33;;;;;;;10.16;88.91;100992.00;5008764;28;20041;-52
2022/11/24 11:06:43;;;;;;;10.70;3.35;;;;;;;10.23;88.18;100992.41;5029708;28;20034;-52
2022/11/24 11:09:09;;;;;;;16.98;3.50;;;;;;;10.27;88.35;100989.38;5030263;28;20048;-52
2022/11/24 11:11:37;;;;;;;19.30;3.72;;;;;;;10.32;87.45;100999.72;5030998;28;20030;-51
2022/11/24 11:14:05;;;;;;;17.77;3.30;;;;;;;10.34;85.83;100988.03;5031021;28;20414;-51
2022/11/24 11:16:42;;;;;;;16.58;3.78;;;;;;;10.38;87.16;100991.31;5030162;28;20037;-52
2022/11/24 11:19:31;;;;;;;13.68;3.40;;;;;;;10.44;87.86;100988.22;5030113;28;20053;-51
2022/11/24 11:22:03;;;;;;;11.25;3.05;;;;;;;10.49;87.85;100977.22;5031339;28;20121;-54